Mahtomedi, Minnesota
Current Conditions -  °F | °C
As of 5:11 AM on Monday 22 Dec 2014 (Local Time) from K21D Reporting Station
Light Rain Light Rain  
Wind Chill: 28°   Ceiling: 600
Heat Index: 36°   Visibility: 4mi
Dew Point: 36°   Wind: 10mph
Humidity: 100%   Direction: 140°SE
Pressure: 29.7"   Gusts: NA
Location:  45.051°N, 92.9612°W
Report Text: K21D 221111Z AUTO 14009KT 4SM -RA OVC006 02/02 A2970 RMK AO2
Loading
Personal Weather Stations






























Interactive Weather Map New forecast layout! Learn more

10-Day Weather Forecast

Advertisements
Track Severe Weather on mobile